Time;durP1;ratioP1;P1;durP2;ratioP2;P2;SDS_P1;SDS_P2;PMS_P1;PMS_P2;Temp;Humidity;BMP_temperature;BMP_pressure;BME280_temperature;BME280_humidity;BME280_pressure;Samples;Min_cycle;Max_cycle;Signal;HPM_P1;HPM_P2
2022/11/05 00:10:26;;;;;;;23.75;13.43;;;;;;;8.16;73.58;100407.91;5042168;28;20049;-73
2022/11/05 00:18:26;;;;;;;28.70;12.43;;;;;;;8.34;73.35;100406.09;5036832;28;20041;-74
2022/11/05 00:20:53;;;;;;;19.52;11.35;;;;;;;8.19;73.75;100410.28;5034965;28;20049;-74
2022/11/05 00:26:07;;;;;;;27.27;12.00;;;;;;;8.25;73.39;100413.19;5035033;28;20046;-74
2022/11/05 00:28:34;;;;;;;16.63;10.18;;;;;;;8.19;73.88;100415.63;5023831;28;20064;-74
2022/11/05 00:31:02;;;;;;;19.30;10.50;;;;;;;8.25;73.74;100421.19;5030968;28;20057;-74
2022/11/05 00:33:28;;;;;;;20.20;10.50;;;;;;;8.31;73.47;100423.28;5033872;28;20103;-74
2022/11/05 00:35:55;;;;;;;15.98;10.68;;;;;;;8.34;73.03;100416.78;5032533;28;20047;-72
2022/11/05 00:38:22;;;;;;;23.52;11.15;;;;;;;8.34;73.35;100412.28;5031315;28;20045;-74
2022/11/05 00:40:48;;;;;;;17.85;10.13;;;;;;;8.31;73.43;100417.94;5031219;28;20421;-74
2022/11/05 00:46:00;;;;;;;15.95;9.75;;;;;;;8.46;72.74;100425.41;5030123;28;20045;-73
2022/11/05 00:51:11;;;;;;;15.95;9.57;;;;;;;8.12;74.00;100429.63;5029312;28;20501;-74
2022/11/05 00:53:38;;;;;;;17.80;9.23;;;;;;;8.16;73.86;100434.63;5029652;28;20398;-73
2022/11/05 00:56:04;;;;;;;15.80;8.40;;;;;;;8.07;74.09;100426.53;5029384;28;20048;-74
2022/11/05 00:58:31;;;;;;;16.63;8.25;;;;;;;8.16;73.77;100440.84;5029473;28;20045;-73
2022/11/05 01:00:59;;;;;;;15.70;8.80;;;;;;;8.20;73.84;100438.69;5030171;28;20408;-74
2022/11/05 01:03:28;;;;;;;15.90;8.10;;;;;;;8.26;73.31;100443.41;5029590;28;20041;-74
2022/11/05 01:05:57;;;;;;;17.25;8.50;;;;;;;8.30;72.97;100442.16;5029303;28;20045;-74
2022/11/05 01:08:25;;;;;;;14.95;8.05;;;;;;;8.29;73.08;100445.78;5029289;28;20045;-74
2022/11/05 01:10:55;;;;;;;20.58;8.80;;;;;;;8.23;73.34;100457.94;5029218;28;20485;-74
2022/11/05 01:13:27;;;;;;;15.32;8.55;;;;;;;8.28;73.26;100452.97;5028864;28;20051;-74
2022/11/05 01:15:54;;;;;;;18.70;8.48;;;;;;;8.25;73.22;100458.63;5029143;28;20056;-74
2022/11/05 01:18:22;;;;;;;15.13;7.53;;;;;;;8.03;73.74;100457.22;5028618;28;20052;-74
2022/11/05 01:20:49;;;;;;;16.67;8.20;;;;;;;8.23;73.57;100462.47;5028904;28;20053;-74
2022/11/05 01:23:16;;;;;;;16.42;7.93;;;;;;;8.15;73.64;100465.84;5029951;28;20489;-73
2022/11/05 01:25:43;;;;;;;18.98;8.18;;;;;;;8.29;73.28;100456.47;5029786;28;20046;-74
2022/11/05 01:28:09;;;;;;;16.75;8.77;;;;;;;8.32;72.95;100466.88;5029287;28;20115;-74
2022/11/05 01:30:36;;;;;;;21.90;9.10;;;;;;;8.32;72.87;100464.19;5028134;28;20049;-74
2022/11/05 01:33:03;;;;;;;20.17;8.52;;;;;;;8.31;72.79;100459.84;5036308;28;20056;-73
2022/11/05 01:35:29;;;;;;;17.83;9.50;;;;;;;8.19;73.03;100466.41;5029981;28;20045;-74
2022/11/05 01:37:56;;;;;;;17.92;8.25;;;;;;;8.25;73.23;100465.81;5030085;28;20048;-74
2022/11/05 01:40:23;;;;;;;18.70;9.30;;;;;;;7.95;73.81;100470.50;5028596;28;20045;-74
2022/11/05 01:42:50;;;;;;;17.10;9.57;;;;;;;8.08;73.46;100468.28;5032721;28;20068;-74
2022/11/05 01:45:25;;;;;;;22.13;9.88;;;;;;;8.09;73.63;100472.66;5032914;28;20049;-73
2022/11/05 01:48:14;;;;;;;19.50;10.13;;;;;;;8.05;73.57;100473.09;5032056;28;20052;-74
2022/11/05 01:50:46;;;;;;;19.08;9.45;;;;;;;8.08;73.52;100476.31;5031993;28;20508;-74
2022/11/05 01:53:28;;;;;;;20.88;10.75;;;;;;;7.95;73.85;100467.84;5032393;28;20045;-73
2022/11/05 01:56:04;;;;;;;18.70;9.93;;;;;;;8.04;73.37;100466.06;5030919;28;20046;-73
2022/11/05 01:58:38;;;;;;;20.02;11.02;;;;;;;7.60;74.86;100477.38;5032511;28;20056;-73
2022/11/05 02:01:05;;;;;;;19.25;10.57;;;;;;;7.83;74.31;100490.34;5033086;28;20124;-73
2022/11/05 02:03:31;;;;;;;21.95;10.98;;;;;;;7.46;75.34;100496.53;5027282;28;20048;-72
2022/11/05 02:10:07;;;;;;;20.25;9.95;;;;;;;7.57;74.55;100504.38;5032520;28;20401;-73
2022/11/05 02:12:38;;;;;;;18.73;9.95;;;;;;;7.58;74.54;100505.22;5022941;28;20060;-73
2022/11/05 02:15:05;;;;;;;21.67;10.90;;;;;;;7.70;74.28;100500.50;5046056;28;20494;-73
2022/11/05 02:17:43;;;;;;;27.77;12.48;;;;;;;7.77;73.92;100504.28;5032708;28;20042;-72
2022/11/05 02:20:15;;;;;;;24.17;11.65;;;;;;;7.52;74.63;100511.97;5031905;28;20524;-73
2022/11/05 02:23:19;;;;;;;17.60;11.35;;;;;;;7.60;74.52;100520.09;5032247;28;20049;-73
2022/11/05 02:26:30;;;;;;;24.80;12.10;;;;;;;7.66;74.13;100519.50;5032048;28;20068;-73
2022/11/05 02:29:27;;;;;;;18.77;11.85;;;;;;;7.63;74.22;100519.78;4932589;29;20047;-73
2022/11/05 02:32:02;;;;;;;24.88;12.52;;;;;;;7.58;74.61;100516.72;4932089;29;20103;-73
2022/11/05 02:34:41;;;;;;;20.95;12.02;;;;;;;7.51;74.50;100520.13;4932503;29;20052;-73
2022/11/05 02:37:24;;;;;;;20.80;12.23;;;;;;;7.44;75.07;100525.19;4932316;29;20055;-73
2022/11/05 02:40:05;;;;;;;22.73;11.63;;;;;;;7.30;75.09;100528.31;4932547;29;20047;-73
2022/11/05 02:42:58;;;;;;;17.42;12.18;;;;;;;7.41;74.89;100534.34;4932678;29;20066;-73
2022/11/05 02:45:42;;;;;;;26.17;12.20;;;;;;;7.56;74.38;100539.22;4931560;29;20055;-73
2022/11/05 02:48:17;;;;;;;20.23;11.48;;;;;;;7.45;74.36;100540.22;4931507;29;20447;-73
2022/11/05 02:51:04;;;;;;;21.13;11.50;;;;;;;7.56;73.96;100545.38;4932097;29;20058;-73
2022/11/05 02:53:33;;;;;;;20.98;10.88;;;;;;;7.45;74.33;100542.06;4932436;29;20047;-73
2022/11/05 02:56:08;;;;;;;20.67;11.90;;;;;;;7.48;74.20;100547.94;4932604;29;20055;-73
2022/11/05 02:58:35;;;;;;;29.63;11.02;;;;;;;7.18;75.25;100536.47;4931927;29;20048;-72
2022/11/05 03:01:05;;;;;;;22.25;11.10;;;;;;;7.42;74.46;100549.34;4932535;29;20056;-74
2022/11/05 03:03:42;;;;;;;26.27;10.63;;;;;;;7.38;74.10;100552.47;4989752;28;20112;-73
2022/11/05 03:06:42;;;;;;;29.95;11.43;;;;;;;7.43;74.18;100558.22;5011167;28;20053;-73
2022/11/05 03:09:21;;;;;;;23.75;10.27;;;;;;;7.44;73.65;100565.25;5011318;28;20049;-73
2022/11/05 03:12:09;;;;;;;23.30;9.95;;;;;;;7.51;73.71;100563.69;5011626;28;20045;-73
2022/11/05 03:14:44;;;;;;;22.42;10.10;;;;;;;7.52;73.49;100565.34;5011111;28;20042;-73
2022/11/05 03:17:30;;;;;;;21.33;10.40;;;;;;;7.47;73.61;100564.97;5010811;28;20054;-73
2022/11/05 03:20:01;;;;;;;21.30;10.30;;;;;;;7.51;73.42;100566.34;5002530;28;20049;-73
2022/11/05 03:22:35;;;;;;;24.13;9.65;;;;;;;7.47;73.73;100570.28;5009871;28;20049;-73
2022/11/05 03:25:09;;;;;;;22.85;9.30;;;;;;;7.55;73.27;100575.75;5010312;28;20049;-73
2022/11/05 03:27:39;;;;;;;23.40;9.68;;;;;;;7.51;73.21;100573.50;5010746;28;20490;-72
2022/11/05 03:30:09;;;;;;;21.30;9.70;;;;;;;7.33;73.63;100573.41;5011707;28;20046;-72
2022/11/05 03:32:40;;;;;;;18.30;8.48;;;;;;;7.55;73.14;100581.09;5011815;28;20046;-73
2022/11/05 03:35:10;;;;;;;;;;;;;;;7.52;73.25;100580.53;5011397;28;20410;-72
2022/11/05 03:37:40;;;;;;;31.27;10.07;;;;;;;7.56;72.72;100587.25;5011396;28;19928;-71
2022/11/05 03:40:09;;;;;;;21.17;10.15;;;;;;;7.47;72.98;100591.66;5011320;28;20041;-71
2022/11/05 03:42:39;;;;;;;26.13;9.60;;;;;;;7.57;72.84;100589.81;5010971;28;20048;-73
2022/11/05 03:45:13;;;;;;;12.27;8.57;;;;;;;7.56;72.71;100593.44;5010489;28;20050;-73
2022/11/05 03:47:44;;;;;;;23.30;9.32;;;;;;;7.60;72.39;100599.31;5011222;28;20065;-73
2022/11/05 03:50:20;;;;;;;25.92;9.50;;;;;;;7.54;72.60;100600.75;5010919;28;20053;-71
2022/11/05 03:52:58;;;;;;;20.60;8.80;;;;;;;7.39;72.99;100597.69;5010784;28;20046;-73
2022/11/05 03:55:34;;;;;;;35.35;9.63;;;;;;;7.47;72.80;100605.00;5017581;28;20049;-73
2022/11/05 03:58:03;;;;;;;23.23;10.57;;;;;;;7.36;73.16;100613.13;5030909;28;20041;-73
2022/11/05 04:00:30;;;;;;;15.85;9.18;;;;;;;7.34;73.27;100610.63;5030341;28;20045;-73
2022/11/05 04:02:57;;;;;;;19.55;9.30;;;;;;;7.43;73.20;100625.78;5029932;28;20046;-73
2022/11/05 04:05:23;;;;;;;18.48;9.45;;;;;;;7.37;72.98;100620.19;5030546;28;20053;-73
2022/11/05 04:13:25;;;;;;;28.48;9.05;;;;;;;7.23;73.59;100637.47;5030250;28;20046;-73
2022/11/05 04:18:39;;;;;;;22.52;9.48;;;;;;;7.33;72.73;100640.13;5030198;28;20435;-73
2022/11/05 04:24:07;;;;;;;19.67;8.57;;;;;;;7.09;73.06;100637.88;5030303;28;20045;-73
2022/11/05 04:26:38;;;;;;;29.92;9.07;;;;;;;7.07;73.45;100640.66;5030832;28;20049;-73
2022/11/05 04:31:50;;;;;;;24.83;8.40;;;;;;;7.00;73.58;100655.53;5029020;28;19928;-73
2022/11/05 04:34:17;;;;;;;26.42;9.25;;;;;;;7.10;73.60;100661.72;5030188;28;20057;-73
2022/11/05 04:36:45;;;;;;;27.45;9.15;;;;;;;7.02;73.29;100661.59;5029128;28;20425;-72
2022/11/05 04:39:11;;;;;;;20.70;9.23;;;;;;;6.95;73.44;100663.97;5026767;28;20505;-74
2022/11/05 04:41:38;;;;;;;29.45;9.70;;;;;;;6.88;73.98;100662.84;5030113;28;20049;-73
2022/11/05 04:44:04;;;;;;;24.15;8.15;;;;;;;7.00;73.63;100663.53;5029835;28;20052;-73
2022/11/05 04:46:31;;;;;;;19.77;8.27;;;;;;;6.95;73.88;100671.13;5028326;28;20041;-73
2022/11/05 04:48:57;;;;;;;17.45;8.57;;;;;;;6.82;73.95;100662.53;5028583;28;20041;-73
2022/11/05 04:51:25;;;;;;;33.97;8.40;;;;;;;6.94;73.59;100658.75;5035780;28;20048;-73
2022/11/05 04:53:52;;;;;;;30.02;8.68;;;;;;;6.98;73.72;100667.31;5029751;28;20053;-73
2022/11/05 04:56:21;;;;;;;21.67;8.45;;;;;;;6.98;73.45;100662.00;5028890;28;20046;-73
2022/11/05 04:58:48;;;;;;;28.90;8.73;;;;;;;6.98;73.50;100662.88;5029212;28;20049;-73
2022/11/05 05:01:18;;;;;;;26.02;8.23;;;;;;;6.71;74.02;100661.69;5030205;28;20053;-73
2022/11/05 05:03:49;;;;;;;26.25;8.75;;;;;;;6.57;74.84;100667.41;5029607;28;20046;-73
2022/11/05 05:06:17;;;;;;;28.67;8.55;;;;;;;6.89;73.99;100669.00;5029231;28;20053;-73
2022/11/05 05:08:45;;;;;;;19.00;7.88;;;;;;;6.92;73.75;100660.75;5029248;28;20050;-71
2022/11/05 05:11:15;;;;;;;30.85;9.30;;;;;;;6.92;73.66;100658.91;5030153;28;20053;-73
2022/11/05 05:13:41;;;;;;;28.05;9.40;;;;;;;6.94;73.17;100661.44;5031199;28;20056;-73
2022/11/05 05:16:16;;;;;;;20.83;8.90;;;;;;;6.87;73.58;100655.78;5033166;28;20489;-73
2022/11/05 05:18:42;;;;;;;20.83;7.97;;;;;;;6.91;73.61;100662.56;5033100;28;20402;-73
2022/11/05 05:23:57;;;;;;;20.65;7.93;;;;;;;6.83;73.48;100669.56;5032771;28;20045;-73
2022/11/05 05:26:24;;;;;;;22.52;8.43;;;;;;;6.86;73.39;100679.94;5033107;28;20053;-73
2022/11/05 05:28:52;;;;;;;23.33;7.88;;;;;;;6.88;72.81;100678.00;5032504;28;20052;-73
2022/11/05 05:31:20;;;;;;;21.95;8.00;;;;;;;6.76;74.05;100687.91;5033156;28;20497;-73
2022/11/05 05:33:47;;;;;;;21.02;6.97;;;;;;;6.83;73.42;100686.38;5033507;28;20050;-73
2022/11/05 05:36:13;;;;;;;21.98;9.10;;;;;;;6.99;73.38;100693.88;5033643;28;20072;-73
2022/11/05 05:38:40;;;;;;;24.30;8.05;;;;;;;6.74;73.69;100699.69;5034011;28;20075;-73
2022/11/05 05:41:06;;;;;;;21.25;7.70;;;;;;;6.79;73.08;100705.47;5033479;28;20503;-73
2022/11/05 05:43:33;;;;;;;22.48;6.68;;;;;;;6.75;73.16;100710.22;5031912;28;20053;-73
2022/11/05 05:46:08;;;;;;;26.88;8.27;;;;;;;6.88;72.81;100710.00;5033231;28;20041;-73
2022/11/05 05:48:35;;;;;;;21.20;7.60;;;;;;;6.67;72.89;100708.25;5030415;28;20429;-73
2022/11/05 05:51:07;;;;;;;24.13;7.35;;;;;;;6.65;73.28;100715.53;5031123;28;20508;-73
2022/11/05 05:53:34;;;;;;;18.05;6.88;;;;;;;6.68;73.30;100715.25;5031833;28;20050;-73
2022/11/05 05:56:01;;;;;;;20.65;7.78;;;;;;;6.75;72.68;100720.91;5032602;28;20095;-73
2022/11/05 05:58:32;;;;;;;23.77;6.97;;;;;;;6.64;73.09;100715.69;5031981;28;20068;-73
2022/11/05 06:01:00;;;;;;;27.73;7.70;;;;;;;6.68;73.09;100725.94;5032257;28;20132;-73
2022/11/05 06:03:26;;;;;;;20.02;7.15;;;;;;;6.68;72.75;100736.59;5025643;28;20052;-73
2022/11/05 06:05:53;;;;;;;24.60;13.27;;;;;;;6.70;72.45;100744.44;5032493;28;20049;-73
2022/11/05 06:08:19;;;;;;;29.10;12.65;;;;;;;6.64;72.37;100745.84;5032798;28;20056;-73
2022/11/05 06:10:50;;;;;;;19.85;9.13;;;;;;;6.59;73.10;100748.03;5032818;28;20042;-73
2022/11/05 06:13:17;;;;;;;22.80;8.47;;;;;;;6.63;72.75;100751.28;5032245;28;20046;-73
2022/11/05 06:15:43;;;;;;;22.08;8.13;;;;;;;6.42;73.34;100757.50;5032561;28;20115;-73
2022/11/05 06:18:10;;;;;;;20.98;7.18;;;;;;;6.48;73.36;100761.47;5030755;28;20450;-73
2022/11/05 06:20:36;;;;;;;33.00;8.07;;;;;;;6.54;72.68;100757.44;5032260;28;20053;-73
2022/11/05 06:23:02;;;;;;;22.73;7.70;;;;;;;6.57;72.76;100763.34;5031522;28;20041;-73
2022/11/05 06:25:29;;;;;;;20.92;7.93;;;;;;;6.56;72.83;100764.31;5030369;28;20045;-72
2022/11/05 06:27:55;;;;;;;20.20;6.90;;;;;;;6.55;72.80;100770.63;5031539;28;20049;-73
2022/11/05 06:30:22;;;;;;;17.95;6.88;;;;;;;6.47;73.05;100778.44;5030200;28;20057;-73
2022/11/05 06:32:49;;;;;;;31.95;8.77;;;;;;;6.45;73.03;100783.88;5032027;28;20045;-73
2022/11/05 06:35:15;;;;;;;21.30;6.65;;;;;;;6.54;72.53;100784.09;5026779;28;20049;-73
2022/11/05 06:37:42;;;;;;;24.85;7.28;;;;;;;6.56;72.50;100792.78;5020303;28;20109;-72
2022/11/05 06:40:09;;;;;;;18.85;6.57;;;;;;;6.30;73.35;100798.53;5032937;28;20044;-73
2022/11/05 06:42:35;;;;;;;21.92;6.65;;;;;;;6.41;72.93;100805.63;5031276;28;20056;-72
2022/11/05 06:45:02;;;;;;;24.27;7.15;;;;;;;6.39;72.85;100804.88;5029088;28;20493;-71
2022/11/05 06:47:28;;;;;;;27.80;8.10;;;;;;;6.46;72.30;100806.09;5029039;28;20050;-73
2022/11/05 06:49:56;;;;;;;17.75;7.22;;;;;;;6.45;72.46;100805.22;5031004;28;20046;-72
2022/11/05 06:52:22;;;;;;;25.30;7.07;;;;;;;6.50;72.29;100812.84;5031786;28;20056;-73
2022/11/05 06:54:49;;;;;;;22.20;8.63;;;;;;;6.42;72.63;100809.97;5030035;28;20046;-71
2022/11/05 06:57:15;;;;;;;23.83;7.05;;;;;;;6.51;72.27;100821.66;5031631;28;20060;-72
2022/11/05 06:59:41;;;;;;;21.75;7.40;;;;;;;6.52;72.26;100824.19;5031420;28;20048;-72
2022/11/05 07:02:10;;;;;;;23.58;7.22;;;;;;;6.41;73.15;100819.78;5032245;28;20048;-73
2022/11/05 07:04:37;;;;;;;23.67;6.90;;;;;;;6.35;72.63;100819.44;5030669;28;20127;-73
2022/11/05 07:07:03;;;;;;;16.42;6.50;;;;;;;6.37;73.34;100823.69;5031529;28;20049;-72
2022/11/05 07:09:30;;;;;;;21.55;7.10;;;;;;;6.46;72.91;100833.56;5031296;28;20049;-73
2022/11/05 07:11:56;;;;;;;19.70;6.18;;;;;;;6.43;72.53;100833.84;5031590;28;20407;-73
2022/11/05 07:14:23;;;;;;;25.08;6.65;;;;;;;6.51;72.51;100837.66;5030874;28;20058;-73
2022/11/05 07:16:49;;;;;;;20.40;7.22;;;;;;;6.48;72.88;100836.09;5031026;28;20049;-71
2022/11/05 07:19:16;;;;;;;31.05;7.25;;;;;;;6.51;72.58;100840.31;5031374;28;20053;-72
2022/11/05 07:21:42;;;;;;;28.55;7.55;;;;;;;6.56;72.27;100844.28;5029859;28;20046;-73
2022/11/05 07:24:08;;;;;;;30.35;7.80;;;;;;;6.49;72.61;100845.78;5030250;28;20049;-72
2022/11/05 07:26:35;;;;;;;25.17;7.13;;;;;;;6.53;72.40;100849.00;5030553;28;20061;-74
2022/11/05 07:29:01;;;;;;;20.52;7.18;;;;;;;6.66;72.07;100850.50;5032384;28;20046;-74
2022/11/05 07:31:28;;;;;;;18.85;7.10;;;;;;;6.57;72.11;100856.66;5029690;28;20046;-74
2022/11/05 07:33:54;;;;;;;24.92;7.45;;;;;;;6.73;72.40;100865.97;5031473;28;20049;-74
2022/11/05 07:36:21;;;;;;;20.83;7.45;;;;;;;6.86;71.74;100866.63;5031243;28;20053;-73
2022/11/05 07:38:47;;;;;;;32.20;7.53;;;;;;;6.80;71.80;100865.31;5032210;28;20049;-74
2022/11/05 07:41:14;;;;;;;20.77;7.85;;;;;;;6.79;72.20;100868.13;5032681;28;20049;-74
2022/11/05 07:43:40;;;;;;;26.95;6.60;;;;;;;6.86;71.85;100866.63;5031210;28;20045;-74
2022/11/05 07:46:07;;;;;;;25.13;8.02;;;;;;;6.74;72.14;100862.31;5030608;28;20046;-71
2022/11/05 07:48:39;;;;;;;22.95;8.48;;;;;;;6.81;72.32;100868.84;5030411;28;20532;-73
2022/11/05 07:51:05;;;;;;;22.10;8.27;;;;;;;6.74;71.98;100862.31;5031414;28;20500;-74
2022/11/05 07:53:32;;;;;;;18.05;8.25;;;;;;;6.58;72.48;100862.81;5032441;28;20052;-73
2022/11/05 07:55:58;;;;;;;23.33;8.35;;;;;;;6.55;72.55;100863.06;5031641;28;20049;-74
2022/11/05 07:58:25;;;;;;;21.85;9.70;;;;;;;6.61;72.17;100871.41;5031517;28;20041;-75
2022/11/05 08:00:51;;;;;;;31.88;9.00;;;;;;;6.68;72.45;100866.38;5032800;28;20056;-74
2022/11/05 08:03:18;;;;;;;25.92;8.02;;;;;;;6.76;71.92;100879.91;5030595;28;20567;-73
2022/11/05 08:05:46;;;;;;;28.02;8.73;;;;;;;6.79;72.03;100870.78;5031058;28;20053;-75
2022/11/05 08:08:15;;;;;;;26.05;8.55;;;;;;;6.90;71.84;100879.53;5031547;28;20061;-74
2022/11/05 08:10:42;;;;;;;28.60;7.60;;;;;;;6.95;71.34;100871.16;5032011;28;20045;-74
2022/11/05 08:13:10;;;;;;;24.60;8.05;;;;;;;7.09;71.13;100889.47;5031385;28;20041;-74
2022/11/05 08:15:38;;;;;;;22.23;8.27;;;;;;;7.17;70.89;100876.31;5031570;28;20053;-74
2022/11/05 08:18:06;;;;;;;29.52;8.00;;;;;;;7.40;70.82;100887.63;5032194;28;20045;-74
2022/11/05 08:20:34;;;;;;;19.55;6.88;;;;;;;7.59;70.01;100896.69;5031889;28;20045;-74
2022/11/05 08:23:00;;;;;;;23.35;7.22;;;;;;;7.88;68.62;100892.28;5030615;28;20041;-74
2022/11/05 08:25:27;;;;;;;17.38;6.43;;;;;;;8.12;67.92;100902.56;5032016;28;20336;-74
2022/11/05 08:28:06;;;;;;;25.42;6.30;;;;;;;8.18;67.78;100906.50;5031058;28;20046;-72
2022/11/05 08:30:33;;;;;;;19.02;5.97;;;;;;;7.88;68.24;100907.44;5032492;28;20068;-73
2022/11/05 08:33:02;;;;;;;19.67;5.80;;;;;;;7.84;68.39;100914.03;5031541;28;20405;-75
2022/11/05 08:35:29;;;;;;;19.25;5.90;;;;;;;7.66;68.49;100916.50;5031843;28;20049;-74
2022/11/05 08:38:01;;;;;;;20.98;6.45;;;;;;;7.35;69.09;100913.03;5033211;28;20045;-74
2022/11/05 08:40:30;;;;;;;22.10;6.38;;;;;;;7.60;68.75;100917.91;5032997;28;20045;-74
2022/11/05 08:43:03;;;;;;;21.35;7.10;;;;;;;7.90;68.11;100927.69;5032356;28;20045;-74
2022/11/05 08:45:31;;;;;;;28.38;6.63;;;;;;;8.26;67.53;100927.16;5031502;28;20053;-73
2022/11/05 08:48:11;;;;;;;19.98;6.85;;;;;;;8.50;66.59;100922.25;5034895;28;20045;-74
2022/11/05 08:50:38;;;;;;;14.00;5.95;;;;;;;8.50;66.33;100930.25;5038469;28;20056;-74
2022/11/05 08:53:05;;;;;;;18.70;5.85;;;;;;;8.55;66.10;100928.03;5039116;28;20049;-74
2022/11/05 08:55:32;;;;;;;21.35;5.65;;;;;;;8.40;66.28;100924.09;5039777;28;20051;-75
2022/11/05 08:58:01;;;;;;;23.40;5.30;;;;;;;8.61;65.92;100932.81;5039739;28;20061;-74
2022/11/05 09:00:29;;;;;;;20.98;5.90;;;;;;;8.84;64.83;100930.66;5039575;28;20056;-74
2022/11/05 09:03:01;;;;;;;21.80;5.25;;;;;;;8.87;64.89;100929.53;5039736;28;20133;-74
2022/11/05 09:05:29;;;;;;;24.40;5.22;;;;;;;8.98;64.10;100937.38;5038061;28;20049;-74
2022/11/05 09:07:56;;;;;;;36.03;5.63;;;;;;;9.02;63.91;100936.13;5039017;28;20055;-74
2022/11/05 09:10:27;;;;;;;15.80;4.20;;;;;;;9.25;63.96;100941.16;5038768;28;20049;-74
2022/11/05 09:12:53;;;;;;;20.20;5.00;;;;;;;9.46;63.07;100939.09;5040577;28;20041;-74
2022/11/05 09:15:21;;;;;;;18.92;4.30;;;;;;;10.00;61.50;100945.44;5040402;28;20052;-73
2022/11/05 09:17:48;;;;;;;24.15;5.30;;;;;;;10.32;60.75;100952.13;5040556;28;20057;-74
2022/11/05 09:20:14;;;;;;;16.67;4.20;;;;;;;10.72;59.08;100957.03;5040955;28;20053;-74
2022/11/05 09:22:41;;;;;;;17.85;4.55;;;;;;;11.05;57.61;100954.59;5041339;28;20041;-74
2022/11/05 09:25:09;;;;;;;20.55;3.90;;;;;;;11.61;56.03;100963.13;5042983;28;20049;-74
2022/11/05 09:27:35;;;;;;;11.57;3.75;;;;;;;11.75;56.12;100953.63;5043531;28;20041;-74
2022/11/05 09:30:04;;;;;;;19.40;3.47;;;;;;;12.33;54.04;100967.06;5043548;28;20053;-74
2022/11/05 09:32:31;;;;;;;26.88;4.95;;;;;;;12.44;53.06;100957.00;5045346;28;20057;-75
2022/11/05 09:34:59;;;;;;;23.70;4.40;;;;;;;12.60;52.58;100957.84;5044549;28;20056;-74
2022/11/05 09:37:27;;;;;;;14.10;4.13;;;;;;;12.91;51.97;100967.97;5044583;28;20052;-74
2022/11/05 09:39:54;;;;;;;15.73;4.53;;;;;;;13.36;51.13;100980.03;5043166;28;20052;-74
2022/11/05 09:42:25;;;;;;;22.50;4.40;;;;;;;13.35;50.81;100983.72;5041315;28;20539;-73
2022/11/05 09:45:01;;;;;;;15.30;3.50;;;;;;;13.55;50.39;100984.16;5041180;28;20436;-74
2022/11/05 09:47:39;;;;;;;20.55;3.80;;;;;;;13.67;49.52;100988.19;5037982;28;20044;-74
2022/11/05 09:50:12;;;;;;;17.92;4.05;;;;;;;13.81;50.00;100981.25;5041110;28;20045;-75
2022/11/05 09:52:38;;;;;;;18.98;3.78;;;;;;;14.03;48.61;100983.16;5039822;28;20073;-72
2022/11/05 09:55:16;;;;;;;19.27;3.75;;;;;;;14.30;47.00;100989.91;5043991;28;20045;-74
2022/11/05 09:57:52;;;;;;;12.88;3.30;;;;;;;14.13;47.20;100982.94;5046493;28;20045;-74
2022/11/05 10:00:18;;;;;;;14.63;3.35;;;;;;;14.43;47.42;100983.94;5044716;28;20406;-74
2022/11/05 10:02:56;;;;;;;10.73;3.40;;;;;;;14.73;45.66;100981.38;5041206;28;20056;-74
2022/11/05 10:05:24;;;;;;;18.85;3.88;;;;;;;14.65;45.96;100993.06;5048367;28;20060;-74
2022/11/05 10:08:01;;;;;;;19.27;3.53;;;;;;;14.29;46.49;100992.81;5050471;28;20046;-74
2022/11/05 10:10:40;;;;;;;16.52;3.38;;;;;;;14.82;44.79;100999.19;5049080;28;20045;-73
2022/11/05 10:13:33;;;;;;;12.77;3.22;;;;;;;14.51;44.85;100996.53;5051208;28;20047;-74
2022/11/05 10:16:07;;;;;;;10.75;2.42;;;;;;;14.04;46.34;100990.22;5051131;28;20045;-72
2022/11/05 10:18:37;;;;;;;13.77;2.92;;;;;;;14.36;45.93;100999.19;5046703;28;20052;-73
2022/11/05 10:21:04;;;;;;;13.50;2.45;;;;;;;14.36;46.12;100987.50;5052450;28;20053;-74
2022/11/05 10:23:31;;;;;;;16.42;3.45;;;;;;;14.61;45.33;100990.91;5054854;28;20036;-74
2022/11/05 10:26:02;;;;;;;14.75;3.10;;;;;;;14.39;45.44;100995.25;5054321;28;20052;-74
2022/11/05 10:28:32;;;;;;;14.50;2.72;;;;;;;14.90;44.22;101001.00;5055217;28;20036;-74
2022/11/05 10:31:02;;;;;;;12.18;3.03;;;;;;;14.47;45.16;101006.03;5054548;28;20045;-73
2022/11/05 10:33:43;;;;;;;10.55;2.28;;;;;;;14.52;45.12;101006.31;5054780;28;20045;-73
2022/11/05 10:36:23;;;;;;;12.98;3.08;;;;;;;14.77;43.81;101013.25;5055939;28;20040;-74
2022/11/05 10:38:50;;;;;;;10.05;2.38;;;;;;;14.62;43.95;101008.78;5054249;28;20030;-73
2022/11/05 10:41:34;;;;;;;15.65;3.03;;;;;;;14.77;44.13;101013.25;5054275;28;20054;-73
2022/11/05 10:44:22;;;;;;;14.55;2.83;;;;;;;14.88;44.20;101011.16;5040176;28;20041;-74
2022/11/05 10:47:01;;;;;;;16.23;3.10;;;;;;;15.29;43.76;101021.56;5048510;28;20042;-73
2022/11/05 10:49:47;;;;;;;16.77;3.10;;;;;;;14.92;43.39;101016.00;5049109;28;20060;-73
2022/11/05 10:52:36;;;;;;;14.73;2.55;;;;;;;15.28;42.39;101028.00;5579354;22;20047;-71
2022/11/05 10:58:05;;;;;;;16.48;3.33;;;;;;;14.81;43.59;101029.94;4950025;28;20054;-75
2022/11/05 11:00:32;;;;;;;11.18;2.30;;;;;;;15.03;42.88;101036.34;4945246;28;20044;-73
2022/11/05 11:03:01;;;;;;;13.90;2.67;;;;;;;15.12;42.69;101035.25;4947976;28;20054;-74
2022/11/05 11:05:39;;;;;;;14.43;2.88;;;;;;;15.11;42.34;101035.41;4948521;28;20047;-74
2022/11/05 11:08:11;;;;;;;15.30;2.40;;;;;;;15.55;41.58;101021.97;4966645;28;20059;-74
2022/11/05 11:10:48;;;;;;;13.55;2.33;;;;;;;15.40;41.87;101029.25;4962940;28;20047;-74
2022/11/05 11:13:24;;;;;;;8.15;2.47;;;;;;;15.94;41.18;101024.41;4961459;28;20467;-74
2022/11/05 11:15:51;;;;;;;13.77;2.65;;;;;;;15.84;41.57;101031.16;4964882;28;20051;-75
2022/11/05 11:18:28;;;;;;;13.10;2.42;;;;;;;16.35;40.26;101023.03;4963433;28;20055;-75
2022/11/05 11:21:22;;;;;;;15.38;2.60;;;;;;;16.49;40.22;101029.44;4961975;28;20083;-75
2022/11/05 11:24:01;;;;;;;20.20;2.90;;;;;;;16.39;39.62;101030.59;4967948;28;20057;-74
2022/11/05 11:26:35;;;;;;;12.98;3.33;;;;;;;15.70;40.92;101024.72;4967268;28;20061;-75
2022/11/05 11:29:19;;;;;;;12.50;2.25;;;;;;;16.08;39.59;101024.59;4968488;28;20423;-75
2022/11/05 11:31:45;;;;;;;11.90;2.50;;;;;;;17.31;37.36;101029.00;4968828;28;20051;-71
2022/11/05 11:34:34;;;;;;;10.77;2.15;;;;;;;17.96;35.75;101037.75;4966037;28;20051;-74
2022/11/05 11:37:12;;;;;;;10.82;2.25;;;;;;;17.82;35.79;101025.97;4968040;28;20046;-74
2022/11/05 11:39:49;;;;;;;16.25;2.63;;;;;;;17.75;35.46;101027.81;4966858;28;20051;-75
2022/11/05 11:42:22;;;;;;;;;;;;;;;18.80;33.28;101040.16;4967562;28;20054;-74
2022/11/05 11:44:50;;;;;;;18.95;2.42;;;;;;;18.83;32.92;101039.75;4965283;28;19922;-74
2022/11/05 11:47:19;;;;;;;10.18;1.98;;;;;;;18.39;33.00;101030.22;4961008;28;20051;-70
2022/11/05 11:49:52;;;;;;;9.65;2.30;;;;;;;18.94;32.81;101046.47;4965392;28;20411;-72
2022/11/05 11:52:31;;;;;;;14.35;2.45;;;;;;;17.95;33.01;101041.50;4965009;28;20408;-72
2022/11/05 11:55:10;;;;;;;12.00;2.63;;;;;;;17.40;34.82;101041.38;4963854;28;20059;-74
2022/11/05 11:57:45;;;;;;;11.82;2.25;;;;;;;17.12;34.37;101041.34;4972467;28;20438;-72
2022/11/05 12:00:13;;;;;;;15.80;2.33;;;;;;;18.18;33.56;101035.81;4968384;28;20062;-72
2022/11/05 12:02:54;;;;;;;12.23;2.53;;;;;;;18.27;33.51;101040.00;4969324;28;20526;-71
2022/11/05 12:05:44;;;;;;;8.68;2.20;;;;;;;18.68;32.49;101039.06;4971901;28;20063;-73
2022/11/05 12:08:23;;;;;;;14.18;2.10;;;;;;;19.14;31.48;101033.72;4971188;28;20062;-72
2022/11/05 12:11:11;;;;;;;15.23;2.50;;;;;;;19.42;30.83;101035.38;4972118;28;20055;-72
2022/11/05 12:13:59;;;;;;;11.43;1.88;;;;;;;19.52;30.52;101034.91;4973685;28;20043;-72
2022/11/05 12:16:34;;;;;;;12.43;2.55;;;;;;;18.04;32.94;101033.00;4970245;28;20106;-73
2022/11/05 12:19:09;;;;;;;14.40;2.47;;;;;;;17.62;33.62;101033.19;4969127;28;20051;-73
2022/11/05 12:22:11;;;;;;;7.57;2.30;;;;;;;16.33;35.59;101022.38;4964432;28;20039;-72
2022/11/05 12:24:51;;;;;;;10.63;2.28;;;;;;;15.87;37.16;101026.19;4949623;28;20046;-73
2022/11/05 12:27:25;;;;;;;6.65;1.80;;;;;;;16.01;37.54;101029.09;4973324;28;20083;-74